sensor_id;sensor_type;location;lat;lon;timestamp;P1;durP1;ratioP1;P2;durP2;ratioP2
30062;SDS011;16889;67.864;24.990;2022-11-27T00:00:52;11.00;;;4.80;;
30062;SDS011;16889;67.864;24.990;2022-11-27T00:05:38;10.02;;;5.28;;
30062;SDS011;16889;67.864;24.990;2022-11-27T00:10:24;11.70;;;5.47;;
30062;SDS011;16889;67.864;24.990;2022-11-27T00:15:10;10.57;;;5.25;;
30062;SDS011;16889;67.864;24.990;2022-11-27T00:19:56;14.15;;;6.25;;
30062;SDS011;16889;67.864;24.990;2022-11-27T00:24:42;12.52;;;6.05;;
30062;SDS011;16889;67.864;24.990;2022-11-27T00:29:29;16.15;;;6.70;;
30062;SDS011;16889;67.864;24.990;2022-11-27T00:34:15;13.40;;;6.10;;
30062;SDS011;16889;67.864;24.990;2022-11-27T00:39:02;13.27;;;5.97;;
30062;SDS011;16889;67.864;24.990;2022-11-27T00:43:48;14.55;;;6.03;;
30062;SDS011;16889;67.864;24.990;2022-11-27T00:48:35;12.43;;;6.28;;
30062;SDS011;16889;67.864;24.990;2022-11-27T00:53:21;13.63;;;6.45;;
30062;SDS011;16889;67.864;24.990;2022-11-27T00:58:07;12.48;;;6.13;;
30062;SDS011;16889;67.864;24.990;2022-11-27T01:02:53;13.18;;;6.00;;
30062;SDS011;16889;67.864;24.990;2022-11-27T01:07:39;14.30;;;6.10;;
30062;SDS011;16889;67.864;24.990;2022-11-27T01:12:25;12.32;;;6.03;;
30062;SDS011;16889;67.864;24.990;2022-11-27T01:17:11;13.98;;;6.15;;
30062;SDS011;16889;67.864;24.990;2022-11-27T01:21:56;12.27;;;5.68;;
30062;SDS011;16889;67.864;24.990;2022-11-27T01:26:43;9.93;;;5.85;;
30062;SDS011;16889;67.864;24.990;2022-11-27T01:31:30;11.45;;;5.53;;
30062;SDS011;16889;67.864;24.990;2022-11-27T01:36:17;10.60;;;5.60;;
30062;SDS011;16889;67.864;24.990;2022-11-27T01:41:05;10.57;;;5.15;;
30062;SDS011;16889;67.864;24.990;2022-11-27T01:45:58;11.13;;;5.63;;
30062;SDS011;16889;67.864;24.990;2022-11-27T01:50:44;8.93;;;5.05;;
30062;SDS011;16889;67.864;24.990;2022-11-27T01:55:35;8.52;;;4.63;;
30062;SDS011;16889;67.864;24.990;2022-11-27T02:00:27;11.10;;;5.00;;
30062;SDS011;16889;67.864;24.990;2022-11-27T02:05:16;10.73;;;4.88;;
30062;SDS011;16889;67.864;24.990;2022-11-27T02:10:05;8.95;;;4.20;;
30062;SDS011;16889;67.864;24.990;2022-11-27T02:25:11;9.55;;;4.32;;
30062;SDS011;16889;67.864;24.990;2022-11-27T02:29:58;6.40;;;3.83;;
30062;SDS011;16889;67.864;24.990;2022-11-27T02:34:48;6.90;;;3.75;;
30062;SDS011;16889;67.864;24.990;2022-11-27T02:39:50;5.75;;;3.50;;
30062;SDS011;16889;67.864;24.990;2022-11-27T02:45:30;5.15;;;3.38;;
30062;SDS011;16889;67.864;24.990;2022-11-27T02:49:58;5.20;;;3.28;;
30062;SDS011;16889;67.864;24.990;2022-11-27T02:54:46;5.82;;;3.47;;
30062;SDS011;16889;67.864;24.990;2022-11-27T02:59:34;5.53;;;3.35;;
30062;SDS011;16889;67.864;24.990;2022-11-27T03:04:26;5.32;;;3.20;;
30062;SDS011;16889;67.864;24.990;2022-11-27T03:14:08;7.22;;;3.72;;
30062;SDS011;16889;67.864;24.990;2022-11-27T03:23:51;7.13;;;3.95;;
30062;SDS011;16889;67.864;24.990;2022-11-27T03:28:38;7.22;;;3.83;;
30062;SDS011;16889;67.864;24.990;2022-11-27T03:38:11;7.93;;;4.43;;
30062;SDS011;16889;67.864;24.990;2022-11-27T03:42:58;8.27;;;4.60;;
30062;SDS011;16889;67.864;24.990;2022-11-27T03:53:50;11.02;;;5.10;;
30062;SDS011;16889;67.864;24.990;2022-11-27T03:58:42;12.20;;;5.70;;
30062;SDS011;16889;67.864;24.990;2022-11-27T04:03:52;11.30;;;5.75;;
30062;SDS011;16889;67.864;24.990;2022-11-27T04:08:38;11.25;;;5.97;;
30062;SDS011;16889;67.864;24.990;2022-11-27T04:13:25;10.13;;;5.77;;
30062;SDS011;16889;67.864;24.990;2022-11-27T04:18:11;11.55;;;5.78;;
30062;SDS011;16889;67.864;24.990;2022-11-27T04:22:57;12.45;;;6.20;;
30062;SDS011;16889;67.864;24.990;2022-11-27T04:27:43;11.30;;;6.35;;
30062;SDS011;16889;67.864;24.990;2022-11-27T04:32:29;12.13;;;6.45;;
30062;SDS011;16889;67.864;24.990;2022-11-27T04:37:15;11.10;;;6.10;;
30062;SDS011;16889;67.864;24.990;2022-11-27T04:42:01;14.07;;;6.38;;
30062;SDS011;16889;67.864;24.990;2022-11-27T04:46:47;14.23;;;6.38;;
30062;SDS011;16889;67.864;24.990;2022-11-27T04:51:34;15.93;;;6.88;;
30062;SDS011;16889;67.864;24.990;2022-11-27T04:56:20;13.38;;;6.45;;
30062;SDS011;16889;67.864;24.990;2022-11-27T05:01:07;12.40;;;6.50;;
30062;SDS011;16889;67.864;24.990;2022-11-27T05:05:54;12.82;;;6.53;;
30062;SDS011;16889;67.864;24.990;2022-11-27T05:10:41;14.68;;;6.85;;
30062;SDS011;16889;67.864;24.990;2022-11-27T05:15:27;15.15;;;6.85;;
30062;SDS011;16889;67.864;24.990;2022-11-27T05:20:13;13.45;;;6.72;;
30062;SDS011;16889;67.864;24.990;2022-11-27T05:24:59;11.75;;;6.82;;
30062;SDS011;16889;67.864;24.990;2022-11-27T05:29:45;12.63;;;6.75;;
30062;SDS011;16889;67.864;24.990;2022-11-27T05:34:31;15.35;;;7.10;;
30062;SDS011;16889;67.864;24.990;2022-11-27T05:39:17;13.95;;;7.13;;
30062;SDS011;16889;67.864;24.990;2022-11-27T05:44:03;15.38;;;7.53;;
30062;SDS011;16889;67.864;24.990;2022-11-27T05:48:50;18.33;;;8.45;;
30062;SDS011;16889;67.864;24.990;2022-11-27T05:53:36;18.92;;;8.57;;
30062;SDS011;16889;67.864;24.990;2022-11-27T05:58:22;18.70;;;8.52;;
30062;SDS011;16889;67.864;24.990;2022-11-27T06:03:08;17.13;;;8.27;;
30062;SDS011;16889;67.864;24.990;2022-11-27T06:07:53;18.70;;;8.52;;
30062;SDS011;16889;67.864;24.990;2022-11-27T06:12:39;15.90;;;7.90;;
30062;SDS011;16889;67.864;24.990;2022-11-27T06:17:25;16.80;;;8.10;;
30062;SDS011;16889;67.864;24.990;2022-11-27T06:22:11;19.73;;;7.90;;
30062;SDS011;16889;67.864;24.990;2022-11-27T06:26:57;14.75;;;7.65;;
30062;SDS011;16889;67.864;24.990;2022-11-27T06:31:43;15.18;;;7.47;;
30062;SDS011;16889;67.864;24.990;2022-11-27T06:36:33;15.40;;;7.82;;
30062;SDS011;16889;67.864;24.990;2022-11-27T06:41:21;15.45;;;7.40;;
30062;SDS011;16889;67.864;24.990;2022-11-27T06:46:11;15.68;;;7.88;;
30062;SDS011;16889;67.864;24.990;2022-11-27T06:51:00;14.35;;;7.78;;
30062;SDS011;16889;67.864;24.990;2022-11-27T06:55:47;14.73;;;7.53;;
30062;SDS011;16889;67.864;24.990;2022-11-27T07:00:33;14.02;;;7.38;;
30062;SDS011;16889;67.864;24.990;2022-11-27T07:05:19;14.48;;;6.95;;
30062;SDS011;16889;67.864;24.990;2022-11-27T07:10:05;15.05;;;7.57;;
30062;SDS011;16889;67.864;24.990;2022-11-27T07:14:51;9.70;;;5.13;;
30062;SDS011;16889;67.864;24.990;2022-11-27T07:19:37;13.82;;;6.70;;
30062;SDS011;16889;67.864;24.990;2022-11-27T07:24:23;14.95;;;7.10;;
30062;SDS011;16889;67.864;24.990;2022-11-27T07:29:09;14.75;;;6.95;;
30062;SDS011;16889;67.864;24.990;2022-11-27T07:33:55;13.05;;;6.72;;
30062;SDS011;16889;67.864;24.990;2022-11-27T07:38:42;13.43;;;6.80;;
30062;SDS011;16889;67.864;24.990;2022-11-27T07:43:29;10.65;;;5.88;;
30062;SDS011;16889;67.864;24.990;2022-11-27T07:48:16;12.60;;;6.50;;
30062;SDS011;16889;67.864;24.990;2022-11-27T07:53:02;12.93;;;5.97;;
30062;SDS011;16889;67.864;24.990;2022-11-27T07:57:48;9.98;;;5.60;;
30062;SDS011;16889;67.864;24.990;2022-11-27T08:02:34;10.45;;;5.65;;
30062;SDS011;16889;67.864;24.990;2022-11-27T08:07:20;10.52;;;5.80;;
30062;SDS011;16889;67.864;24.990;2022-11-27T08:12:13;10.98;;;5.72;;
30062;SDS011;16889;67.864;24.990;2022-11-27T08:17:00;12.20;;;5.75;;
30062;SDS011;16889;67.864;24.990;2022-11-27T08:21:45;10.25;;;5.85;;
30062;SDS011;16889;67.864;24.990;2022-11-27T08:26:31;10.73;;;5.60;;
30062;SDS011;16889;67.864;24.990;2022-11-27T08:31:17;11.18;;;5.97;;
30062;SDS011;16889;67.864;24.990;2022-11-27T08:36:07;13.00;;;6.70;;
30062;SDS011;16889;67.864;24.990;2022-11-27T08:40:57;11.10;;;6.33;;
30062;SDS011;16889;67.864;24.990;2022-11-27T08:45:45;13.70;;;6.50;;
30062;SDS011;16889;67.864;24.990;2022-11-27T08:50:31;15.27;;;7.10;;
30062;SDS011;16889;67.864;24.990;2022-11-27T08:55:17;15.27;;;7.28;;
30062;SDS011;16889;67.864;24.990;2022-11-27T09:00:03;13.55;;;7.22;;
30062;SDS011;16889;67.864;24.990;2022-11-27T09:04:50;15.52;;;7.22;;
30062;SDS011;16889;67.864;24.990;2022-11-27T09:09:36;12.57;;;6.75;;
30062;SDS011;16889;67.864;24.990;2022-11-27T09:14:22;13.43;;;6.47;;
30062;SDS011;16889;67.864;24.990;2022-11-27T09:19:08;14.02;;;6.72;;
30062;SDS011;16889;67.864;24.990;2022-11-27T09:23:54;18.55;;;7.03;;
30062;SDS011;16889;67.864;24.990;2022-11-27T09:28:41;14.05;;;6.93;;
30062;SDS011;16889;67.864;24.990;2022-11-27T09:33:29;12.23;;;6.38;;
30062;SDS011;16889;67.864;24.990;2022-11-27T09:38:17;13.50;;;7.20;;
30062;SDS011;16889;67.864;24.990;2022-11-27T09:43:04;14.18;;;7.53;;
30062;SDS011;16889;67.864;24.990;2022-11-27T09:47:55;12.70;;;6.82;;
30062;SDS011;16889;67.864;24.990;2022-11-27T09:57:37;15.57;;;7.03;;
30062;SDS011;16889;67.864;24.990;2022-11-27T10:02:32;12.07;;;6.80;;
30062;SDS011;16889;67.864;24.990;2022-11-27T10:12:39;14.10;;;7.13;;
30062;SDS011;16889;67.864;24.990;2022-11-27T10:17:49;14.80;;;7.20;;
30062;SDS011;16889;67.864;24.990;2022-11-27T10:22:49;11.87;;;7.00;;
30062;SDS011;16889;67.864;24.990;2022-11-27T10:27:41;14.73;;;7.28;;
30062;SDS011;16889;67.864;24.990;2022-11-27T10:32:56;13.32;;;6.63;;
30062;SDS011;16889;67.864;24.990;2022-11-27T10:47:27;14.50;;;7.43;;
30062;SDS011;16889;67.864;24.990;2022-11-27T10:52:15;14.20;;;8.05;;
30062;SDS011;16889;67.864;24.990;2022-11-27T10:57:10;12.27;;;7.03;;
30062;SDS011;16889;67.864;24.990;2022-11-27T11:07:30;13.95;;;7.68;;
30062;SDS011;16889;67.864;24.990;2022-11-27T11:12:17;13.02;;;7.57;;
30062;SDS011;16889;67.864;24.990;2022-11-27T11:17:24;13.98;;;7.32;;
30062;SDS011;16889;67.864;24.990;2022-11-27T11:22:12;14.75;;;7.03;;
30062;SDS011;16889;67.864;24.990;2022-11-27T11:27:04;16.75;;;8.30;;
30062;SDS011;16889;67.864;24.990;2022-11-27T11:32:02;15.63;;;7.25;;
30062;SDS011;16889;67.864;24.990;2022-11-27T11:37:18;15.35;;;7.75;;
30062;SDS011;16889;67.864;24.990;2022-11-27T11:42:17;14.75;;;8.10;;
30062;SDS011;16889;67.864;24.990;2022-11-27T11:47:13;14.13;;;7.43;;
30062;SDS011;16889;67.864;24.990;2022-11-27T11:57:18;16.20;;;7.25;;
30062;SDS011;16889;67.864;24.990;2022-11-27T12:02:38;15.75;;;7.85;;
30062;SDS011;16889;67.864;24.990;2022-11-27T12:18:44;16.60;;;7.78;;
30062;SDS011;16889;67.864;24.990;2022-11-27T12:24:04;14.38;;;7.93;;
30062;SDS011;16889;67.864;24.990;2022-11-27T12:39:52;15.27;;;7.95;;
30062;SDS011;16889;67.864;24.990;2022-11-27T12:49:39;13.85;;;7.80;;
30062;SDS011;16889;67.864;24.990;2022-11-27T12:59:44;14.35;;;7.63;;
30062;SDS011;16889;67.864;24.990;2022-11-27T13:04:45;14.75;;;7.82;;
30062;SDS011;16889;67.864;24.990;2022-11-27T13:14:26;16.52;;;8.45;;
30062;SDS011;16889;67.864;24.990;2022-11-27T13:19:22;16.08;;;7.72;;
30062;SDS011;16889;67.864;24.990;2022-11-27T13:24:25;16.48;;;8.00;;
30062;SDS011;16889;67.864;24.990;2022-11-27T13:29:59;15.40;;;7.97;;
30062;SDS011;16889;67.864;24.990;2022-11-27T13:34:29;13.98;;;7.70;;
30062;SDS011;16889;67.864;24.990;2022-11-27T13:39:21;15.95;;;8.27;;
30062;SDS011;16889;67.864;24.990;2022-11-27T13:44:20;15.57;;;7.05;;
30062;SDS011;16889;67.864;24.990;2022-11-27T13:49:16;13.77;;;7.30;;
30062;SDS011;16889;67.864;24.990;2022-11-27T13:54:10;14.60;;;7.45;;
30062;SDS011;16889;67.864;24.990;2022-11-27T13:58:58;14.63;;;7.00;;
30062;SDS011;16889;67.864;24.990;2022-11-27T14:03:44;12.35;;;7.07;;
30062;SDS011;16889;67.864;24.990;2022-11-27T14:08:34;14.33;;;7.03;;
30062;SDS011;16889;67.864;24.990;2022-11-27T14:13:20;12.85;;;6.75;;
30062;SDS011;16889;67.864;24.990;2022-11-27T14:23:03;11.98;;;6.45;;
30062;SDS011;16889;67.864;24.990;2022-11-27T14:28:32;13.93;;;7.10;;
30062;SDS011;16889;67.864;24.990;2022-11-27T14:33:14;12.27;;;7.25;;
30062;SDS011;16889;67.864;24.990;2022-11-27T14:38:07;14.10;;;7.20;;
30062;SDS011;16889;67.864;24.990;2022-11-27T14:43:05;15.00;;;7.50;;
30062;SDS011;16889;67.864;24.990;2022-11-27T14:47:53;13.25;;;6.88;;
30062;SDS011;16889;67.864;24.990;2022-11-27T14:52:43;13.60;;;7.18;;
30062;SDS011;16889;67.864;24.990;2022-11-27T14:57:33;13.52;;;7.15;;
30062;SDS011;16889;67.864;24.990;2022-11-27T15:02:20;12.98;;;6.80;;
30062;SDS011;16889;67.864;24.990;2022-11-27T15:12:10;12.23;;;7.28;;
30062;SDS011;16889;67.864;24.990;2022-11-27T15:17:01;14.55;;;7.13;;
30062;SDS011;16889;67.864;24.990;2022-11-27T15:21:47;11.65;;;6.72;;
30062;SDS011;16889;67.864;24.990;2022-11-27T15:26:35;12.02;;;6.82;;
30062;SDS011;16889;67.864;24.990;2022-11-27T15:31:34;12.77;;;5.90;;
30062;SDS011;16889;67.864;24.990;2022-11-27T15:36:21;10.73;;;5.90;;
30062;SDS011;16889;67.864;24.990;2022-11-27T15:46:11;9.05;;;5.25;;
30062;SDS011;16889;67.864;24.990;2022-11-27T15:50:58;11.70;;;6.75;;
30062;SDS011;16889;67.864;24.990;2022-11-27T15:55:44;10.82;;;5.75;;
30062;SDS011;16889;67.864;24.990;2022-11-27T16:00:30;13.20;;;6.68;;
30062;SDS011;16889;67.864;24.990;2022-11-27T16:05:16;11.18;;;6.68;;
30062;SDS011;16889;67.864;24.990;2022-11-27T16:10:03;12.47;;;6.60;;
30062;SDS011;16889;67.864;24.990;2022-11-27T16:14:49;11.37;;;6.37;;
30062;SDS011;16889;67.864;24.990;2022-11-27T16:19:35;11.98;;;6.80;;
30062;SDS011;16889;67.864;24.990;2022-11-27T16:24:21;13.18;;;6.53;;
30062;SDS011;16889;67.864;24.990;2022-11-27T16:29:08;10.45;;;6.18;;
30062;SDS011;16889;67.864;24.990;2022-11-27T16:33:54;12.80;;;7.00;;
30062;SDS011;16889;67.864;24.990;2022-11-27T16:38:40;12.32;;;6.10;;
30062;SDS011;16889;67.864;24.990;2022-11-27T16:43:27;11.63;;;6.35;;
30062;SDS011;16889;67.864;24.990;2022-11-27T16:48:17;12.23;;;6.90;;
30062;SDS011;16889;67.864;24.990;2022-11-27T16:53:03;10.52;;;6.45;;
30062;SDS011;16889;67.864;24.990;2022-11-27T16:57:49;11.07;;;6.75;;
30062;SDS011;16889;67.864;24.990;2022-11-27T17:02:35;11.65;;;6.95;;
30062;SDS011;16889;67.864;24.990;2022-11-27T17:07:21;11.10;;;6.70;;
30062;SDS011;16889;67.864;24.990;2022-11-27T17:12:07;11.50;;;6.43;;
30062;SDS011;16889;67.864;24.990;2022-11-27T17:16:53;12.25;;;6.13;;
30062;SDS011;16889;67.864;24.990;2022-11-27T17:21:40;10.60;;;6.00;;
30062;SDS011;16889;67.864;24.990;2022-11-27T17:26:27;8.93;;;5.40;;
30062;SDS011;16889;67.864;24.990;2022-11-27T17:31:15;11.32;;;6.53;;
30062;SDS011;16889;67.864;24.990;2022-11-27T17:36:03;10.40;;;5.53;;
30062;SDS011;16889;67.864;24.990;2022-11-27T17:40:49;13.65;;;6.57;;
30062;SDS011;16889;67.864;24.990;2022-11-27T17:45:38;10.82;;;6.40;;
30062;SDS011;16889;67.864;24.990;2022-11-27T17:50:25;12.57;;;6.30;;
30062;SDS011;16889;67.864;24.990;2022-11-27T17:55:11;13.27;;;7.13;;
30062;SDS011;16889;67.864;24.990;2022-11-27T17:59:57;10.27;;;6.13;;
30062;SDS011;16889;67.864;24.990;2022-11-27T18:04:43;10.10;;;6.35;;
30062;SDS011;16889;67.864;24.990;2022-11-27T18:09:31;9.75;;;6.05;;
30062;SDS011;16889;67.864;24.990;2022-11-27T18:14:17;10.02;;;5.30;;
30062;SDS011;16889;67.864;24.990;2022-11-27T18:19:04;9.60;;;5.65;;
30062;SDS011;16889;67.864;24.990;2022-11-27T18:23:52;7.95;;;5.30;;
30062;SDS011;16889;67.864;24.990;2022-11-27T18:28:39;10.15;;;5.55;;
30062;SDS011;16889;67.864;24.990;2022-11-27T18:33:25;9.40;;;5.63;;
30062;SDS011;16889;67.864;24.990;2022-11-27T18:38:11;12.70;;;6.47;;
30062;SDS011;16889;67.864;24.990;2022-11-27T18:42:58;9.25;;;5.75;;
30062;SDS011;16889;67.864;24.990;2022-11-27T18:47:44;11.18;;;6.47;;
30062;SDS011;16889;67.864;24.990;2022-11-27T18:52:30;9.55;;;5.93;;
30062;SDS011;16889;67.864;24.990;2022-11-27T18:57:16;9.48;;;5.15;;
30062;SDS011;16889;67.864;24.990;2022-11-27T19:02:03;9.20;;;5.70;;
30062;SDS011;16889;67.864;24.990;2022-11-27T19:06:49;8.65;;;5.22;;
30062;SDS011;16889;67.864;24.990;2022-11-27T19:11:35;10.18;;;5.30;;
30062;SDS011;16889;67.864;24.990;2022-11-27T19:16:23;7.38;;;4.50;;
30062;SDS011;16889;67.864;24.990;2022-11-27T19:21:14;5.75;;;3.88;;
30062;SDS011;16889;67.864;24.990;2022-11-27T19:26:04;5.55;;;3.70;;
30062;SDS011;16889;67.864;24.990;2022-11-27T19:30:51;4.00;;;3.00;;
30062;SDS011;16889;67.864;24.990;2022-11-27T19:35:37;5.70;;;3.75;;
30062;SDS011;16889;67.864;24.990;2022-11-27T19:40:23;5.85;;;3.92;;
30062;SDS011;16889;67.864;24.990;2022-11-27T19:45:11;5.20;;;3.67;;
30062;SDS011;16889;67.864;24.990;2022-11-27T19:49:57;6.28;;;3.42;;
30062;SDS011;16889;67.864;24.990;2022-11-27T19:54:43;4.78;;;3.35;;
30062;SDS011;16889;67.864;24.990;2022-11-27T19:59:29;5.28;;;3.58;;
30062;SDS011;16889;67.864;24.990;2022-11-27T20:04:15;7.57;;;3.75;;
30062;SDS011;16889;67.864;24.990;2022-11-27T20:09:02;5.50;;;3.10;;
30062;SDS011;16889;67.864;24.990;2022-11-27T20:13:49;4.47;;;3.55;;
30062;SDS011;16889;67.864;24.990;2022-11-27T20:18:36;4.35;;;3.10;;
30062;SDS011;16889;67.864;24.990;2022-11-27T20:23:22;5.75;;;3.00;;
30062;SDS011;16889;67.864;24.990;2022-11-27T20:28:08;5.03;;;3.20;;
30062;SDS011;16889;67.864;24.990;2022-11-27T20:32:55;6.22;;;3.50;;
30062;SDS011;16889;67.864;24.990;2022-11-27T20:37:41;5.75;;;3.55;;
30062;SDS011;16889;67.864;24.990;2022-11-27T20:42:27;5.07;;;3.33;;
30062;SDS011;16889;67.864;24.990;2022-11-27T20:47:13;5.78;;;3.38;;
30062;SDS011;16889;67.864;24.990;2022-11-27T20:51:59;5.22;;;3.47;;
30062;SDS011;16889;67.864;24.990;2022-11-27T20:56:50;5.82;;;3.58;;
30062;SDS011;16889;67.864;24.990;2022-11-27T21:01:37;6.57;;;4.18;;
30062;SDS011;16889;67.864;24.990;2022-11-27T21:06:26;5.68;;;3.53;;
30062;SDS011;16889;67.864;24.990;2022-11-27T21:11:16;6.30;;;3.72;;
30062;SDS011;16889;67.864;24.990;2022-11-27T21:16:10;5.72;;;4.05;;
30062;SDS011;16889;67.864;24.990;2022-11-27T21:21:03;6.38;;;4.45;;
30062;SDS011;16889;67.864;24.990;2022-11-27T21:25:51;6.20;;;4.07;;
30062;SDS011;16889;67.864;24.990;2022-11-27T21:30:37;6.28;;;4.40;;
30062;SDS011;16889;67.864;24.990;2022-11-27T21:35:24;6.50;;;4.15;;
30062;SDS011;16889;67.864;24.990;2022-11-27T21:40:10;7.25;;;4.82;;
30062;SDS011;16889;67.864;24.990;2022-11-27T21:44:57;5.90;;;3.90;;
30062;SDS011;16889;67.864;24.990;2022-11-27T21:49:44;6.65;;;4.43;;
30062;SDS011;16889;67.864;24.990;2022-11-27T21:54:30;6.25;;;3.85;;
30062;SDS011;16889;67.864;24.990;2022-11-27T21:59:16;7.35;;;4.22;;
30062;SDS011;16889;67.864;24.990;2022-11-27T22:04:02;5.68;;;4.05;;
30062;SDS011;16889;67.864;24.990;2022-11-27T22:08:49;7.07;;;5.07;;
30062;SDS011;16889;67.864;24.990;2022-11-27T22:13:36;7.70;;;4.65;;
30062;SDS011;16889;67.864;24.990;2022-11-27T22:18:22;6.70;;;4.55;;
30062;SDS011;16889;67.864;24.990;2022-11-27T22:23:08;8.18;;;4.65;;
30062;SDS011;16889;67.864;24.990;2022-11-27T22:27:54;8.05;;;5.22;;
30062;SDS011;16889;67.864;24.990;2022-11-27T22:32:40;7.43;;;4.68;;
30062;SDS011;16889;67.864;24.990;2022-11-27T22:37:26;9.43;;;5.93;;
30062;SDS011;16889;67.864;24.990;2022-11-27T22:42:12;11.32;;;6.07;;
30062;SDS011;16889;67.864;24.990;2022-11-27T22:46:58;8.65;;;5.55;;
30062;SDS011;16889;67.864;24.990;2022-11-27T22:51:45;8.90;;;5.45;;
30062;SDS011;16889;67.864;24.990;2022-11-27T22:56:31;9.75;;;5.78;;
30062;SDS011;16889;67.864;24.990;2022-11-27T23:01:21;8.95;;;5.38;;
30062;SDS011;16889;67.864;24.990;2022-11-27T23:06:13;8.68;;;5.40;;
30062;SDS011;16889;67.864;24.990;2022-11-27T23:11:00;9.73;;;5.50;;
30062;SDS011;16889;67.864;24.990;2022-11-27T23:15:49;7.68;;;4.90;;
30062;SDS011;16889;67.864;24.990;2022-11-27T23:20:42;8.80;;;5.47;;
30062;SDS011;16889;67.864;24.990;2022-11-27T23:25:28;7.38;;;5.15;;
30062;SDS011;16889;67.864;24.990;2022-11-27T23:30:15;11.35;;;6.25;;
30062;SDS011;16889;67.864;24.990;2022-11-27T23:35:01;8.07;;;5.65;;
30062;SDS011;16889;67.864;24.990;2022-11-27T23:39:47;9.60;;;5.80;;
30062;SDS011;16889;67.864;24.990;2022-11-27T23:44:33;10.10;;;6.18;;
30062;SDS011;16889;67.864;24.990;2022-11-27T23:49:20;9.65;;;6.05;;
30062;SDS011;16889;67.864;24.990;2022-11-27T23:54:07;10.45;;;6.10;;
30062;SDS011;16889;67.864;24.990;2022-11-27T23:58:55;11.65;;;5.75;;
